Time;durP1;ratioP1;P1;durP2;ratioP2;P2;SDS_P1;SDS_P2;PMS_P1;PMS_P2;Temp;Humidity;BMP_temperature;BMP_pressure;BME280_temperature;BME280_humidity;BME280_pressure;Samples;Min_cycle;Max_cycle;Signal;HPM_P1;HPM_P2
2022/11/14 00:00:17;;;;;;;0.20;0.20;;;;;;;;;;4148957;28;20050;-38
2022/11/14 00:02:37;;;;;;;0.20;0.20;;;;;;;;;;4135791;28;20053;-38
2022/11/14 00:04:57;;;;;;;0.40;0.20;;;;;;;;;;4140718;28;20564;-38
2022/11/14 00:07:17;;;;;;;;;;;;;;;;;;4147570;28;20057;-38
2022/11/14 00:09:39;;;;;;;0.40;0.30;;;;;;;;;;4149229;28;20265;-38
2022/11/14 00:11:58;;;;;;;0.32;0.20;;;;;;;;;;4149159;28;20192;-39
2022/11/14 00:14:18;;;;;;;0.38;0.35;;;;;;;;;;4137715;28;20076;-38
2022/11/14 00:16:38;;;;;;;;;;;;;;;;;;4149401;28;20057;-39
2022/11/14 00:18:58;;;;;;;;;;;;;;;;;;4149523;28;19995;-38
2022/11/14 00:21:18;;;;;;;0.40;0.40;;;;;;;;;;4148174;28;19976;-39
2022/11/14 00:23:38;;;;;;;1.58;0.30;;;;;;;;;;4159436;28;20049;-38
2022/11/14 00:25:57;;;;;;;0.30;0.28;;;;;;;;;;4143239;28;20453;-38
2022/11/14 00:28:18;;;;;;;0.30;0.30;;;;;;;;;;4144572;28;20057;-38
2022/11/14 00:30:38;;;;;;;1.80;0.20;;;;;;;;;;4135779;28;20058;-38
2022/11/14 00:32:58;;;;;;;0.13;0.13;;;;;;;;;;4137820;28;20438;-38
2022/11/14 00:35:18;;;;;;;0.50;0.20;;;;;;;;;;4145836;28;20132;-38
2022/11/14 00:37:37;;;;;;;0.77;0.30;;;;;;;;;;4140039;28;20112;-38
2022/11/14 00:39:57;;;;;;;0.30;0.30;;;;;;;;;;4148782;28;20462;-38
2022/11/14 00:42:17;;;;;;;0.10;0.10;;;;;;;;;;4137674;28;20120;-38
2022/11/14 00:44:37;;;;;;;0.28;0.20;;;;;;;;;;4138276;28;20055;-38
2022/11/14 00:46:57;;;;;;;0.28;0.20;;;;;;;;;;4148220;28;20061;-38
2022/11/14 00:49:16;;;;;;;0.57;0.30;;;;;;;;;;4148839;28;20524;-39
2022/11/14 00:51:36;;;;;;;0.20;0.20;;;;;;;;;;4140322;28;20054;-38
2022/11/14 00:53:56;;;;;;;0.20;0.20;;;;;;;;;;4148500;28;20127;-38
2022/11/14 00:56:15;;;;;;;;;;;;;;;;;;4137057;28;20603;-38
2022/11/14 00:58:35;;;;;;;0.17;0.17;;;;;;;;;;4132783;28;19925;-39
2022/11/14 01:00:55;;;;;;;0.10;0.10;;;;;;;;;;4132341;28;20054;-39
2022/11/14 01:03:15;;;;;;;0.15;0.15;;;;;;;;;;4173564;28;20057;-39
2022/11/14 01:05:43;;;;;;;0.40;0.30;;;;;;;;;;4148651;28;20111;-39
2022/11/14 01:08:02;;;;;;;0.20;0.20;;;;;;;;;;4134797;28;20066;-40
2022/11/14 01:10:22;;;;;;;0.20;0.20;;;;;;;;;;4141381;28;20097;-40
2022/11/14 01:12:42;;;;;;;0.30;0.28;;;;;;;;;;4144090;28;20054;-39
2022/11/14 01:15:01;;;;;;;0.60;0.25;;;;;;;;;;4136486;28;20471;-39
2022/11/14 01:17:21;;;;;;;0.32;0.25;;;;;;;;;;4147821;28;20058;-39
2022/11/14 01:19:41;;;;;;;0.32;0.15;;;;;;;;;;4132550;28;20054;-40
2022/11/14 01:22:01;;;;;;;0.30;0.30;;;;;;;;;;4156085;28;20092;-40
2022/11/14 01:24:21;;;;;;;1.10;0.30;;;;;;;;;;4131627;28;20050;-39
2022/11/14 01:26:41;;;;;;;;;;;;;;;;;;4142984;28;20050;-39
2022/11/14 01:29:01;;;;;;;0.55;0.28;;;;;;;;;;4143494;28;19921;-40
2022/11/14 01:31:23;;;;;;;0.43;0.20;;;;;;;;;;4131797;28;20089;-39
2022/11/14 01:33:43;;;;;;;0.35;0.20;;;;;;;;;;4141254;28;20548;-40
2022/11/14 01:36:04;;;;;;;0.10;0.10;;;;;;;;;;4134574;28;20054;-39
2022/11/14 01:38:24;;;;;;;0.15;0.15;;;;;;;;;;4148092;28;20456;-40
2022/11/14 01:40:45;;;;;;;0.20;0.20;;;;;;;;;;4148023;28;20053;-40
2022/11/14 01:43:23;;;;;;;0.30;0.20;;;;;;;;;;4147620;28;20096;-40
2022/11/14 01:46:01;;;;;;;0.20;0.20;;;;;;;;;;4147628;28;20100;-38
2022/11/14 01:48:45;;;;;;;0.10;0.10;;;;;;;;;;4139316;28;20050;-39
2022/11/14 01:51:14;;;;;;;0.47;0.25;;;;;;;;;;4130578;28;20493;-40
2022/11/14 01:53:33;;;;;;;0.30;0.20;;;;;;;;;;4131585;28;20367;-40
2022/11/14 01:55:55;;;;;;;0.28;0.20;;;;;;;;;;4144616;28;20117;-40
2022/11/14 01:58:15;;;;;;;0.17;0.17;;;;;;;;;;4124879;28;20224;-39
2022/11/14 02:00:35;;;;;;;0.40;0.30;;;;;;;;;;4146481;28;20061;-40
2022/11/14 02:02:56;;;;;;;0.10;0.10;;;;;;;;;;4133683;28;20247;-39
2022/11/14 02:05:16;;;;;;;0.20;0.20;;;;;;;;;;4143447;28;20062;-40
2022/11/14 02:07:38;;;;;;;0.13;0.10;;;;;;;;;;4135609;28;20103;-40
2022/11/14 02:10:01;;;;;;;0.20;0.20;;;;;;;;;;4146302;28;20077;-39
2022/11/14 02:12:21;;;;;;;0.75;0.20;;;;;;;;;;4146146;28;20084;-40
2022/11/14 02:14:46;;;;;;;0.20;0.20;;;;;;;;;;4147392;28;20107;-39
2022/11/14 02:17:06;;;;;;;0.22;0.20;;;;;;;;;;4145601;28;20513;-39
2022/11/14 02:19:40;;;;;;;1.40;0.20;;;;;;;;;;4138897;28;20112;-39
2022/11/14 02:22:00;;;;;;;0.45;0.28;;;;;;;;;;4131876;28;20104;-40
2022/11/14 02:24:19;;;;;;;0.30;0.30;;;;;;;;;;4140806;28;20112;-40
2022/11/14 02:26:40;;;;;;;0.20;0.20;;;;;;;;;;4143711;28;20405;-40
2022/11/14 02:28:59;;;;;;;0.20;0.20;;;;;;;;;;4146622;28;20053;-40
2022/11/14 02:31:19;;;;;;;0.43;0.10;;;;;;;;;;4139993;28;20079;-38
2022/11/14 02:33:39;;;;;;;0.30;0.30;;;;;;;;;;4146810;28;20078;-40
2022/11/14 02:35:59;;;;;;;1.05;0.40;;;;;;;;;;4146839;28;20093;-40
2022/11/14 02:38:19;;;;;;;;;;;;;;;;;;4147229;28;20050;-39
2022/11/14 02:40:39;;;;;;;;;;;;;;;;;;4141509;28;19922;-39
2022/11/14 02:42:59;;;;;;;0.17;0.17;;;;;;;;;;4142342;28;19932;-40
2022/11/14 02:45:19;;;;;;;;;;;;;;;;;;4147436;28;20053;-40
2022/11/14 02:47:39;;;;;;;;;;;;;;;;;;4147317;28;19921;-40
2022/11/14 02:49:58;;;;;;;0.93;0.45;;;;;;;;;;4133444;28;19930;-40
2022/11/14 02:52:18;;;;;;;0.10;0.10;;;;;;;;;;4166021;28;20112;-40
2022/11/14 02:54:38;;;;;;;;;;;;;;;;;;4144064;28;20046;-40
2022/11/14 02:56:57;;;;;;;0.43;0.17;;;;;;;;;;4134959;28;19925;-39
2022/11/14 02:59:17;;;;;;;0.32;0.25;;;;;;;;;;4136206;28;20414;-39
2022/11/14 03:01:37;;;;;;;0.20;0.20;;;;;;;;;;4131604;28;20517;-39
2022/11/14 03:03:57;;;;;;;0.45;0.20;;;;;;;;;;4146822;28;20061;-39
2022/11/14 03:06:16;;;;;;;0.82;0.30;;;;;;;;;;4132572;28;20058;-39
2022/11/14 03:08:37;;;;;;;0.30;0.25;;;;;;;;;;4146075;28;20049;-40
2022/11/14 03:11:06;;;;;;;0.20;0.10;;;;;;;;;;4146960;28;20053;-40
2022/11/14 03:13:28;;;;;;;0.20;0.20;;;;;;;;;;4146651;28;20131;-39
2022/11/14 03:15:48;;;;;;;0.28;0.15;;;;;;;;;;4146680;28;20460;-40
2022/11/14 03:18:08;;;;;;;;;;;;;;;;;;4146488;28;20057;-39
2022/11/14 03:20:28;;;;;;;0.25;0.20;;;;;;;;;;4137861;28;19922;-40
2022/11/14 03:22:48;;;;;;;0.22;0.20;;;;;;;;;;4170643;28;20057;-41
2022/11/14 03:25:08;;;;;;;;;;;;;;;;;;4139929;28;20105;-39
2022/11/14 03:27:27;;;;;;;0.32;0.25;;;;;;;;;;4142912;28;19922;-39
2022/11/14 03:29:48;;;;;;;0.55;0.20;;;;;;;;;;4135498;28;20060;-40
2022/11/14 03:32:08;;;;;;;0.55;0.20;;;;;;;;;;4135414;28;20059;-40
2022/11/14 03:34:28;;;;;;;;;;;;;;;;;;4143537;28;20054;-40
2022/11/14 03:36:48;;;;;;;0.40;0.30;;;;;;;;;;4138615;28;19921;-39
2022/11/14 03:39:08;;;;;;;0.20;0.20;;;;;;;;;;4132932;28;20062;-40
2022/11/14 03:41:27;;;;;;;0.17;0.10;;;;;;;;;;4139851;28;20062;-39
2022/11/14 03:43:47;;;;;;;;;;;;;;;;;;4130730;28;20058;-40
2022/11/14 03:46:07;;;;;;;0.13;0.13;;;;;;;;;;4134435;28;20020;-40
2022/11/14 03:48:28;;;;;;;0.10;0.10;;;;;;;;;;4146175;28;20057;-40
2022/11/14 03:50:48;;;;;;;0.47;0.20;;;;;;;;;;4132645;28;20419;-39
2022/11/14 03:53:07;;;;;;;0.10;0.10;;;;;;;;;;4138467;28;20121;-39
2022/11/14 03:55:27;;;;;;;0.40;0.30;;;;;;;;;;4143327;28;20054;-39
2022/11/14 03:57:47;;;;;;;0.22;0.20;;;;;;;;;;4135422;28;20053;-40
2022/11/14 04:00:07;;;;;;;0.30;0.30;;;;;;;;;;4146463;28;20057;-39
2022/11/14 04:02:27;;;;;;;0.10;0.10;;;;;;;;;;4133006;28;20054;-39
2022/11/14 04:04:47;;;;;;;0.20;0.20;;;;;;;;;;4146420;28;20054;-40
2022/11/14 04:07:07;;;;;;;0.40;0.20;;;;;;;;;;4145699;28;20060;-39
2022/11/14 04:09:28;;;;;;;0.30;0.15;;;;;;;;;;4145409;28;20061;-40
2022/11/14 04:11:48;;;;;;;0.20;0.20;;;;;;;;;;4146061;28;20058;-40
2022/11/14 04:14:08;;;;;;;0.63;0.20;;;;;;;;;;4134844;28;20124;-40
2022/11/14 04:16:27;;;;;;;;;;;;;;;;;;4146412;28;20104;-40
2022/11/14 04:18:48;;;;;;;0.43;0.30;;;;;;;;;;4135958;28;20389;-40
2022/11/14 04:21:07;;;;;;;0.30;0.20;;;;;;;;;;4138334;28;20061;-40
2022/11/14 04:23:27;;;;;;;0.30;0.17;;;;;;;;;;4132622;28;20054;-40
2022/11/14 04:25:47;;;;;;;0.20;0.20;;;;;;;;;;4140022;28;20054;-40
2022/11/14 04:28:07;;;;;;;0.38;0.13;;;;;;;;;;4141511;28;20054;-40
2022/11/14 04:30:26;;;;;;;0.17;0.17;;;;;;;;;;4134116;28;20049;-39
2022/11/14 04:32:48;;;;;;;0.28;0.20;;;;;;;;;;4145314;28;20057;-39
2022/11/14 04:35:07;;;;;;;0.20;0.20;;;;;;;;;;4143810;28;20060;-40
2022/11/14 04:37:28;;;;;;;0.10;0.10;;;;;;;;;;4137173;28;20058;-40
2022/11/14 04:39:47;;;;;;;;;;;;;;;;;;4146587;28;20058;-40
2022/11/14 04:42:07;;;;;;;0.15;0.15;;;;;;;;;;4145821;28;19954;-39
2022/11/14 04:44:27;;;;;;;0.50;0.28;;;;;;;;;;4146248;28;20100;-40
2022/11/14 04:46:47;;;;;;;0.20;0.20;;;;;;;;;;4134307;28;20054;-39
2022/11/14 04:49:06;;;;;;;;;;;;;;;;;;4140310;28;20054;-40
2022/11/14 04:51:26;;;;;;;0.20;0.20;;;;;;;;;;4146552;28;19928;-40
2022/11/14 04:53:46;;;;;;;0.20;0.20;;;;;;;;;;4148629;28;20490;-40
2022/11/14 04:56:07;;;;;;;0.20;0.10;;;;;;;;;;4147599;28;20054;-40
2022/11/14 04:58:27;;;;;;;0.17;0.17;;;;;;;;;;4137256;28;20053;-40
2022/11/14 05:00:47;;;;;;;0.30;0.20;;;;;;;;;;4148521;28;20053;-40
2022/11/14 05:03:07;;;;;;;;;;;;;;;;;;4144799;28;20064;-40
2022/11/14 05:05:27;;;;;;;0.25;0.20;;;;;;;;;;4140628;28;19948;-40
2022/11/14 05:07:46;;;;;;;;;;;;;;;;;;4148307;28;20076;-40
2022/11/14 05:10:07;;;;;;;0.52;0.30;;;;;;;;;;4138435;28;20020;-39
2022/11/14 05:12:27;;;;;;;0.52;0.35;;;;;;;;;;4136618;28;20498;-39
2022/11/14 05:14:47;;;;;;;0.20;0.20;;;;;;;;;;4136186;28;20100;-39
2022/11/14 05:17:07;;;;;;;0.45;0.40;;;;;;;;;;4140578;28;20054;-40
2022/11/14 05:19:27;;;;;;;0.32;0.30;;;;;;;;;;4148176;28;20104;-40
2022/11/14 05:21:47;;;;;;;;;;;;;;;;;;4148734;28;20104;-39
2022/11/14 05:24:07;;;;;;;0.22;0.22;;;;;;;;;;4148266;28;19921;-39
2022/11/14 05:26:27;;;;;;;0.40;0.30;;;;;;;;;;4136201;28;20058;-40
2022/11/14 05:28:46;;;;;;;0.32;0.30;;;;;;;;;;4137400;28;20050;-39
2022/11/14 05:31:09;;;;;;;0.50;0.40;;;;;;;;;;4135120;28;20050;-40
2022/11/14 05:33:29;;;;;;;0.80;0.50;;;;;;;;;;4148028;28;20050;-40
2022/11/14 05:35:49;;;;;;;0.85;0.50;;;;;;;;;;4134706;28;20054;-39
2022/11/14 05:38:09;;;;;;;0.55;0.40;;;;;;;;;;4147914;28;20096;-40
2022/11/14 05:40:29;;;;;;;;;;;;;;;;;;4136022;28;20058;-40
2022/11/14 05:42:48;;;;;;;0.43;0.40;;;;;;;;;;4136481;28;19921;-39
2022/11/14 05:45:09;;;;;;;0.75;0.50;;;;;;;;;;4137560;28;20058;-39
2022/11/14 05:47:29;;;;;;;0.30;0.30;;;;;;;;;;4162941;28;20054;-40
2022/11/14 05:49:49;;;;;;;0.55;0.30;;;;;;;;;;4139337;28;20100;-39
2022/11/14 05:52:09;;;;;;;0.47;0.30;;;;;;;;;;4157253;28;20492;-39
2022/11/14 05:54:29;;;;;;;0.50;0.40;;;;;;;;;;4137503;28;20046;-39
2022/11/14 05:56:49;;;;;;;0.65;0.50;;;;;;;;;;4135639;28;20104;-40
2022/11/14 05:59:08;;;;;;;0.70;0.60;;;;;;;;;;4146562;28;20100;-39
2022/11/14 06:01:28;;;;;;;0.55;0.47;;;;;;;;;;4140127;28;20061;-39
2022/11/14 06:03:48;;;;;;;0.50;0.50;;;;;;;;;;4138245;28;20555;-40
2022/11/14 06:06:10;;;;;;;0.88;0.63;;;;;;;;;;4136754;28;20456;-39
2022/11/14 06:08:30;;;;;;;1.08;0.50;;;;;;;;;;4144943;28;20072;-40
2022/11/14 06:10:49;;;;;;;;;;;;;;;;;;4135756;28;20054;-39
2022/11/14 06:13:09;;;;;;;0.50;0.45;;;;;;;;;;4133835;28;19925;-39
2022/11/14 06:15:29;;;;;;;0.52;0.38;;;;;;;;;;4129287;28;20054;-39
2022/11/14 06:17:51;;;;;;;0.50;0.40;;;;;;;;;;4129096;28;20062;-39
2022/11/14 06:20:14;;;;;;;0.70;0.45;;;;;;;;;;4135558;28;20046;-40
2022/11/14 06:22:34;;;;;;;0.75;0.50;;;;;;;;;;4131544;28;20510;-39
2022/11/14 06:24:54;;;;;;;0.88;0.40;;;;;;;;;;4142076;28;20501;-37
2022/11/14 06:27:14;;;;;;;;;;;;;;;;;;4141240;28;20062;-40
2022/11/14 06:29:34;;;;;;;0.32;0.32;;;;;;;;;;4136889;28;19996;-41
2022/11/14 06:31:54;;;;;;;1.95;0.60;;;;;;;;;;4123124;28;20053;-42
2022/11/14 06:34:14;;;;;;;0.50;0.43;;;;;;;;;;4127682;28;20108;-40
2022/11/14 06:36:34;;;;;;;2.75;0.57;;;;;;;;;;4131617;28;20382;-42
2022/11/14 06:38:54;;;;;;;0.60;0.50;;;;;;;;;;4130970;28;20077;-41
2022/11/14 06:41:16;;;;;;;1.13;0.38;;;;;;;;;;4131624;28;20061;-44
2022/11/14 06:43:38;;;;;;;0.70;0.47;;;;;;;;;;4137335;28;20100;-43
2022/11/14 06:45:58;;;;;;;0.45;0.38;;;;;;;;;;4132710;28;20093;-41
2022/11/14 06:48:18;;;;;;;;;;;;;;;;;;4124975;28;20501;-40
2022/11/14 06:50:38;;;;;;;0.38;0.30;;;;;;;;;;4127641;28;19925;-41
2022/11/14 06:52:58;;;;;;;0.30;0.30;;;;;;;;;;4120975;28;20107;-41
2022/11/14 06:55:17;;;;;;;0.80;0.50;;;;;;;;;;4128110;28;20156;-41
2022/11/14 06:57:37;;;;;;;0.50;0.38;;;;;;;;;;4122927;28;20058;-40
2022/11/14 06:59:57;;;;;;;0.43;0.35;;;;;;;;;;4114527;28;20498;-42
2022/11/14 07:02:17;;;;;;;1.83;0.28;;;;;;;;;;4120367;28;20069;-41
2022/11/14 07:04:37;;;;;;;0.55;0.30;;;;;;;;;;4130014;28;20054;-46
2022/11/14 07:06:57;;;;;;;0.82;0.40;;;;;;;;;;4122498;28;20054;-44
2022/11/14 07:09:17;;;;;;;0.93;0.30;;;;;;;;;;4121074;28;20123;-45
2022/11/14 07:11:37;;;;;;;2.10;0.45;;;;;;;;;;4113327;28;20096;-43
2022/11/14 07:13:58;;;;;;;;;;;;;;;;;;4124769;28;20112;-44
2022/11/14 07:16:19;;;;;;;0.75;0.40;;;;;;;;;;4127503;28;19983;-42
2022/11/14 07:18:39;;;;;;;2.33;0.38;;;;;;;;;;4124453;28;20066;-44
2022/11/14 07:21:00;;;;;;;0.32;0.30;;;;;;;;;;4122606;28;20062;-42
2022/11/14 07:23:19;;;;;;;0.63;0.38;;;;;;;;;;4123670;28;20266;-44
2022/11/14 07:25:40;;;;;;;0.65;0.30;;;;;;;;;;4113853;28;20314;-43
2022/11/14 07:28:00;;;;;;;0.40;0.30;;;;;;;;;;4104569;28;20053;-43
2022/11/14 07:30:21;;;;;;;0.38;0.30;;;;;;;;;;4118569;28;20065;-43
2022/11/14 07:32:40;;;;;;;0.55;0.30;;;;;;;;;;4110221;28;20066;-44
2022/11/14 07:35:00;;;;;;;;;;;;;;;;;;4114191;28;20517;-43
2022/11/14 07:37:20;;;;;;;;;;;;;;;;;;4123812;28;20345;-44
2022/11/14 07:39:40;;;;;;;2.53;0.40;;;;;;;;;;4117755;28;21659;-43
2022/11/14 07:42:00;;;;;;;1.10;0.30;;;;;;;;;;4122673;28;20062;-44
2022/11/14 07:44:20;;;;;;;0.68;0.50;;;;;;;;;;4113528;28;20605;-45
2022/11/14 07:46:40;;;;;;;;;;;;;;;;;;4144901;28;20776;-46
2022/11/14 07:48:59;;;;;;;0.52;0.30;;;;;;;;;;4122306;28;19930;-44
2022/11/14 07:51:20;;;;;;;0.32;0.20;;;;;;;;;;4118346;28;20155;-45
2022/11/14 07:53:40;;;;;;;;;;;;;;;;;;4124750;28;20163;-45
2022/11/14 07:56:04;;;;;;;;;;;;;;;;;;4114606;28;20408;-44
2022/11/14 07:58:23;;;;;;;1.33;0.30;;;;;;;;;;4085803;28;20306;-48
2022/11/14 08:00:43;;;;;;;2.35;0.20;;;;;;;;;;4112696;28;20720;-43
2022/11/14 08:03:06;;;;;;;1.20;0.30;;;;;;;;;;4095157;28;20179;-47
2022/11/14 08:05:25;;;;;;;0.82;0.30;;;;;;;;;;4112929;28;20053;-47
2022/11/14 08:07:45;;;;;;;;;;;;;;;;;;4107600;28;20057;-45
2022/11/14 08:10:06;;;;;;;;;;;;;;;;;;4106066;28;20948;-44
2022/11/14 08:12:26;;;;;;;1.73;0.30;;;;;;;;;;4093749;28;19937;-42
2022/11/14 08:14:46;;;;;;;0.30;0.20;;;;;;;;;;4102739;28;20532;-40
2022/11/14 08:17:06;;;;;;;3.17;0.40;;;;;;;;;;4105175;28;20682;-42
2022/11/14 08:19:27;;;;;;;3.15;0.30;;;;;;;;;;4114266;28;20053;-44
2022/11/14 08:21:47;;;;;;;2.08;1.02;;;;;;;;;;4118205;28;20622;-42
2022/11/14 08:24:07;;;;;;;0.85;0.20;;;;;;;;;;4140035;28;20562;-47
2022/11/14 08:26:27;;;;;;;0.32;0.30;;;;;;;;;;4109788;28;21024;-40
2022/11/14 08:28:47;;;;;;;0.10;0.10;;;;;;;;;;4109991;28;20667;-41
2022/11/14 08:31:09;;;;;;;2.80;0.30;;;;;;;;;;4105244;28;20132;-45
2022/11/14 08:33:29;;;;;;;0.95;0.10;;;;;;;;;;4104885;28;20053;-45
2022/11/14 08:35:49;;;;;;;1.35;0.10;;;;;;;;;;4114711;28;20647;-41
2022/11/14 08:38:09;;;;;;;1.55;0.20;;;;;;;;;;4115482;28;20057;-44
2022/11/14 08:40:29;;;;;;;2.70;0.28;;;;;;;;;;4119822;28;20058;-50
2022/11/14 08:42:50;;;;;;;0.70;0.13;;;;;;;;;;4119452;28;20208;-46
2022/11/14 08:45:09;;;;;;;0.10;0.10;;;;;;;;;;4124435;28;20149;-41
2022/11/14 08:47:30;;;;;;;1.02;0.10;;;;;;;;;;4118210;28;20702;-48
2022/11/14 08:49:49;;;;;;;;;;;;;;;;;;4113302;28;20528;-41
2022/11/14 08:52:09;;;;;;;0.25;0.10;;;;;;;;;;4114274;28;20758;-43
2022/11/14 08:54:29;;;;;;;0.70;0.10;;;;;;;;;;4118251;28;20054;-46
2022/11/14 08:56:49;;;;;;;0.10;0.10;;;;;;;;;;4106408;28;20064;-42
2022/11/14 08:59:09;;;;;;;0.30;0.10;;;;;;;;;;4096396;28;20066;-40
2022/11/14 09:01:31;;;;;;;0.40;0.20;;;;;;;;;;4099300;28;21469;-46
2022/11/14 09:03:51;;;;;;;2.35;0.10;;;;;;;;;;4089302;28;20062;-52
2022/11/14 09:06:11;;;;;;;0.32;0.22;;;;;;;;;;4107055;28;20053;-49
2022/11/14 09:08:31;;;;;;;0.57;0.00;;;;;;;;;;4105630;28;20072;-55
2022/11/14 09:10:51;;;;;;;;;;;;;;;;;;4105164;28;20057;-48
2022/11/14 09:13:11;;;;;;;0.65;0.10;;;;;;;;;;4119043;28;20102;-44
2022/11/14 09:15:32;;;;;;;0.17;0.10;;;;;;;;;;4101632;28;21004;-52
2022/11/14 09:17:54;;;;;;;1.65;0.20;;;;;;;;;;4136568;28;20064;-47
2022/11/14 09:20:14;;;;;;;0.30;0.10;;;;;;;;;;4106966;28;20401;-48
2022/11/14 09:22:33;;;;;;;;;;;;;;;;;;4113003;28;20140;-49
2022/11/14 09:24:53;;;;;;;3.50;0.10;;;;;;;;;;4107344;28;20911;-50
2022/11/14 09:27:13;;;;;;;0.10;0.10;;;;;;;;;;4117840;28;20065;-46
2022/11/14 09:29:32;;;;;;;0.30;0.10;;;;;;;;;;4113875;28;20068;-44
2022/11/14 09:31:53;;;;;;;0.68;0.20;;;;;;;;;;4082436;28;20065;-46
2022/11/14 09:34:13;;;;;;;0.10;0.10;;;;;;;;;;4110413;28;20054;-57
2022/11/14 09:36:33;;;;;;;1.17;0.38;;;;;;;;;;4111368;28;20061;-57
2022/11/14 09:38:53;;;;;;;1.80;0.22;;;;;;;;;;4113564;28;20999;-51
2022/11/14 09:41:31;;;;;;;0.25;0.20;;;;;;;;;;4105566;28;20061;-60
2022/11/14 09:44:12;;;;;;;1.25;0.20;;;;;;;;;;4111003;28;20058;-49
2022/11/14 09:46:38;;;;;;;0.50;0.30;;;;;;;;;;4107016;28;20683;-54
2022/11/14 09:48:58;;;;;;;1.17;0.20;;;;;;;;;;4146084;28;20060;-57
2022/11/14 09:51:20;;;;;;;0.50;0.30;;;;;;;;;;4112704;28;20160;-52
2022/11/14 09:53:59;;;;;;;3.20;0.30;;;;;;;;;;4105533;28;20109;-53
2022/11/14 09:56:23;;;;;;;1.45;0.43;;;;;;;;;;4119808;28;21005;-54
2022/11/14 09:58:43;;;;;;;2.55;0.15;;;;;;;;;;4113562;28;20360;-50
2022/11/14 10:01:27;;;;;;;1.75;0.20;;;;;;;;;;4108375;28;20155;-52
2022/11/14 10:03:58;;;;;;;2.00;0.13;;;;;;;;;;4089778;28;20496;-54
2022/11/14 10:06:22;;;;;;;1.55;0.30;;;;;;;;;;4099165;28;20086;-57
2022/11/14 10:08:42;;;;;;;0.40;0.10;;;;;;;;;;4118138;28;20085;-58
2022/11/14 10:11:22;;;;;;;1.23;0.30;;;;;;;;;;4113898;28;20696;-55
2022/11/14 10:13:58;;;;;;;0.25;0.20;;;;;;;;;;4116739;28;20058;-53
2022/11/14 10:16:41;;;;;;;0.35;0.30;;;;;;;;;;4139176;28;20049;-52
2022/11/14 10:19:19;;;;;;;0.55;0.20;;;;;;;;;;4121018;28;20050;-57
2022/11/14 10:21:43;;;;;;;0.20;0.10;;;;;;;;;;4141441;28;20583;-53
2022/11/14 10:24:41;;;;;;;0.88;0.20;;;;;;;;;;4120101;28;21394;-51
2022/11/14 10:27:07;;;;;;;1.27;0.45;;;;;;;;;;4114463;28;20057;-62
2022/11/14 10:29:45;;;;;;;2.60;0.30;;;;;;;;;;4110265;28;20489;-55
2022/11/14 10:32:24;;;;;;;0.95;0.30;;;;;;;;;;4105689;28;20061;-51
2022/11/14 10:34:48;;;;;;;0.40;0.20;;;;;;;;;;4102573;28;20189;-53
2022/11/14 10:37:23;;;;;;;1.95;0.52;;;;;;;;;;4116927;28;20665;-54
2022/11/14 10:39:56;;;;;;;1.88;0.20;;;;;;;;;;4152048;28;20056;-58
2022/11/14 10:42:27;;;;;;;1.55;0.20;;;;;;;;;;4145906;28;20123;-58
2022/11/14 10:45:07;;;;;;;2.28;0.30;;;;;;;;;;4110863;28;20053;-54
2022/11/14 10:47:31;;;;;;;0.75;0.40;;;;;;;;;;4136803;28;20061;-58
2022/11/14 10:49:54;;;;;;;0.30;0.30;;;;;;;;;;4116054;28;20544;-57
2022/11/14 10:52:19;;;;;;;2.35;0.25;;;;;;;;;;4113108;28;20409;-50
2022/11/14 10:54:54;;;;;;;0.43;0.40;;;;;;;;;;4115035;28;20104;-51
2022/11/14 10:57:19;;;;;;;1.25;0.20;;;;;;;;;;4116794;28;20058;-55
2022/11/14 10:59:39;;;;;;;2.15;0.47;;;;;;;;;;4119656;28;20089;-55
2022/11/14 11:01:59;;;;;;;;;;;;;;;;;;4123480;28;20058;-58
2022/11/14 11:04:24;;;;;;;0.30;0.20;;;;;;;;;;4121066;28;20310;-58
2022/11/14 11:06:45;;;;;;;0.45;0.30;;;;;;;;;;4112331;28;20453;-52
2022/11/14 11:12:00;;;;;;;2.13;0.30;;;;;;;;;;4121943;28;20583;-57
2022/11/14 11:14:22;;;;;;;1.27;0.40;;;;;;;;;;4133646;28;20439;-60
2022/11/14 11:16:41;;;;;;;0.85;0.38;;;;;;;;;;4136977;28;20112;-56
2022/11/14 11:19:21;;;;;;;0.70;0.47;;;;;;;;;;4138738;28;20049;-58
2022/11/14 11:21:49;;;;;;;0.57;0.30;;;;;;;;;;4136261;28;20050;-58
2022/11/14 11:24:09;;;;;;;1.17;0.60;;;;;;;;;;4120637;28;20104;-54
2022/11/14 11:26:30;;;;;;;0.20;0.20;;;;;;;;;;4126511;28;21620;-59
2022/11/14 11:29:10;;;;;;;1.15;0.30;;;;;;;;;;4125582;28;20058;-55
2022/11/14 11:31:50;;;;;;;0.47;0.40;;;;;;;;;;4121576;28;20491;-55
2022/11/14 11:34:11;;;;;;;0.35;0.20;;;;;;;;;;4117382;28;20099;-51
2022/11/14 11:36:36;;;;;;;0.98;0.30;;;;;;;;;;4129499;28;20089;-54
2022/11/14 11:38:56;;;;;;;2.97;0.50;;;;;;;;;;4128926;28;20166;-58
2022/11/14 11:41:35;;;;;;;0.40;0.40;;;;;;;;;;4133644;28;20375;-55
2022/11/14 11:43:56;;;;;;;0.52;0.30;;;;;;;;;;4122808;28;20049;-56
2022/11/14 11:46:28;;;;;;;0.40;0.30;;;;;;;;;;4114536;28;20080;-56
2022/11/14 11:48:50;;;;;;;0.40;0.40;;;;;;;;;;4105242;28;20453;-54
2022/11/14 11:51:18;;;;;;;0.80;0.30;;;;;;;;;;4116852;28;20152;-54
2022/11/14 11:53:45;;;;;;;2.55;0.57;;;;;;;;;;4105062;28;20120;-56
2022/11/14 11:56:09;;;;;;;0.75;0.52;;;;;;;;;;4107620;28;20065;-54
2022/11/14 11:58:36;;;;;;;1.13;0.40;;;;;;;;;;4107029;28;20054;-51
2022/11/14 12:00:56;;;;;;;1.95;0.40;;;;;;;;;;4141583;28;20648;-53
2022/11/14 12:03:16;;;;;;;1.75;0.30;;;;;;;;;;4122611;28;20637;-56
2022/11/14 12:05:41;;;;;;;;;;;;;;;;;;4133320;28;20057;-54
2022/11/14 12:08:08;;;;;;;0.40;0.20;;;;;;;;;;4118474;28;19940;-58
2022/11/14 12:10:30;;;;;;;5.88;0.40;;;;;;;;;;4140022;28;20061;-56
2022/11/14 12:12:58;;;;;;;0.80;0.35;;;;;;;;;;4120065;28;20058;-55
2022/11/14 12:15:28;;;;;;;0.55;0.30;;;;;;;;;;4126088;28;20482;-54
2022/11/14 12:18:18;;;;;;;2.78;0.50;;;;;;;;;;4118344;28;20827;-55
2022/11/14 12:20:58;;;;;;;1.60;0.40;;;;;;;;;;4116541;28;20544;-56
2022/11/14 12:23:30;;;;;;;2.17;0.40;;;;;;;;;;4120964;28;20061;-51
2022/11/14 12:26:08;;;;;;;2.15;0.50;;;;;;;;;;4119767;28;20604;-54
2022/11/14 12:28:37;;;;;;;1.38;0.30;;;;;;;;;;4106237;28;20480;-50
2022/11/14 12:31:00;;;;;;;0.30;0.30;;;;;;;;;;4108217;28;21296;-50
2022/11/14 12:33:35;;;;;;;0.60;0.40;;;;;;;;;;4109934;28;20072;-54
2022/11/14 12:36:00;;;;;;;0.50;0.38;;;;;;;;;;4118016;28;20092;-55
2022/11/14 12:38:21;;;;;;;8.98;0.35;;;;;;;;;;4153730;28;20118;-51
2022/11/14 12:40:48;;;;;;;0.52;0.30;;;;;;;;;;4116327;28;20924;-51
2022/11/14 12:43:29;;;;;;;0.57;0.20;;;;;;;;;;4116696;28;20136;-55
2022/11/14 12:45:49;;;;;;;0.30;0.20;;;;;;;;;;4120643;28;20483;-55
2022/11/14 12:48:25;;;;;;;2.47;0.35;;;;;;;;;;4116996;28;20054;-49
2022/11/14 12:50:45;;;;;;;0.80;0.38;;;;;;;;;;4118535;28;21036;-55
2022/11/14 12:53:37;;;;;;;0.30;0.20;;;;;;;;;;4115546;28;20061;-56
2022/11/14 12:56:18;;;;;;;0.32;0.20;;;;;;;;;;4139491;28;20060;-60
2022/11/14 12:59:13;;;;;;;0.55;0.30;;;;;;;;;;4122732;28;20062;-55
2022/11/14 13:01:49;;;;;;;1.48;0.28;;;;;;;;;;4103590;28;20050;-54
2022/11/14 13:04:11;;;;;;;0.80;0.30;;;;;;;;;;4113404;28;20054;-51
2022/11/14 13:07:02;;;;;;;2.45;0.40;;;;;;;;;;4139456;28;20575;-49
2022/11/14 13:09:42;;;;;;;0.30;0.28;;;;;;;;;;4117947;28;20478;-53
2022/11/14 13:23:42;;;;;;;0.30;0.20;;;;;;;;;;4119902;28;20053;-48
2022/11/14 13:26:11;;;;;;;0.70;0.45;;;;;;;;;;4111549;28;20335;-51
2022/11/14 13:28:37;;;;;;;0.50;0.20;;;;;;;;;;4119334;28;20110;-54
2022/11/14 13:31:15;;;;;;;2.13;0.30;;;;;;;;;;4112612;28;20058;-51
2022/11/14 13:33:43;;;;;;;0.40;0.30;;;;;;;;;;4115169;28;20057;-51
2022/11/14 13:36:04;;;;;;;0.98;0.25;;;;;;;;;;4125242;28;20062;-56
2022/11/14 13:38:42;;;;;;;0.70;0.20;;;;;;;;;;4148547;28;20057;-56
2022/11/14 13:41:23;;;;;;;0.77;0.40;;;;;;;;;;4121925;28;20484;-50
2022/11/14 13:44:02;;;;;;;0.75;0.40;;;;;;;;;;4120029;28;20073;-58
2022/11/14 13:46:50;;;;;;;0.68;0.43;;;;;;;;;;4116799;28;20065;-50
2022/11/14 13:49:19;;;;;;;0.10;0.10;;;;;;;;;;4116419;28;20061;-50
2022/11/14 13:51:39;;;;;;;0.73;0.25;;;;;;;;;;4113426;28;20432;-55
2022/11/14 13:53:59;;;;;;;0.25;0.13;;;;;;;;;;4133212;28;20457;-54
2022/11/14 13:56:22;;;;;;;0.40;0.30;;;;;;;;;;4107608;28;21663;-52
2022/11/14 13:58:42;;;;;;;0.95;0.20;;;;;;;;;;4119880;28;20656;-54
2022/11/14 14:01:05;;;;;;;;;;;;;;;;;;4114463;28;21474;-55
2022/11/14 14:03:44;;;;;;;0.82;0.30;;;;;;;;;;4119956;28;20966;-57
2022/11/14 14:06:23;;;;;;;0.40;0.20;;;;;;;;;;4114440;28;20057;-57
2022/11/14 14:08:46;;;;;;;9.55;0.52;;;;;;;;;;4120533;28;20509;-52
2022/11/14 14:11:36;;;;;;;0.20;0.20;;;;;;;;;;4114738;28;20120;-50
2022/11/14 14:13:56;;;;;;;0.25;0.20;;;;;;;;;;4124821;28;20149;-55
2022/11/14 14:16:29;;;;;;;;;;;;;;;;;;4125608;28;20062;-38
2022/11/14 14:19:21;;;;;;;0.52;0.30;;;;;;;;;;4123447;28;20472;-43
2022/11/14 14:22:01;;;;;;;1.38;0.30;;;;;;;;;;4153967;28;20064;-41
2022/11/14 14:24:34;;;;;;;1.42;0.20;;;;;;;;;;4127422;28;20053;-39
2022/11/14 14:27:33;;;;;;;2.20;0.22;;;;;;;;;;4124031;28;20066;-39
2022/11/14 14:30:10;;;;;;;0.25;0.17;;;;;;;;;;4124220;28;20547;-41
2022/11/14 14:32:30;;;;;;;0.25;0.25;;;;;;;;;;4111622;28;20057;-42
2022/11/14 14:34:52;;;;;;;1.05;0.50;;;;;;;;;;4140608;28;20437;-41
2022/11/14 14:37:18;;;;;;;0.85;0.32;;;;;;;;;;4124340;28;20062;-39
2022/11/14 14:39:38;;;;;;;0.47;0.35;;;;;;;;;;4137618;28;20068;-41
2022/11/14 14:41:58;;;;;;;;;;;;;;;;;;4124508;28;20061;-40
2022/11/14 14:44:30;;;;;;;0.98;0.22;;;;;;;;;;4125779;28;20020;-40
2022/11/14 14:46:51;;;;;;;1.38;0.20;;;;;;;;;;4122721;28;20057;-41